createdAt,value
2022-12-31T00:00:53.974Z,97793.63
2022-12-31T00:03:22.100Z,97806.03
2022-12-31T00:05:50.773Z,97813.34
2022-12-31T00:08:20.399Z,97813.88
2022-12-31T00:10:48.310Z,97807.94
2022-12-31T00:13:16.789Z,97807.38
2022-12-31T00:15:46.399Z,97805.78
2022-12-31T00:18:17.249Z,97812.25
2022-12-31T00:20:45.257Z,97819.56
2022-12-31T00:23:13.461Z,97814.44
2022-12-31T00:25:41.683Z,97820.66
2022-12-31T00:28:10.087Z,97823.91
2022-12-31T00:30:38.682Z,97824.72
2022-12-31T00:33:06.632Z,97829.56
2022-12-31T00:35:36.492Z,97833.03
2022-12-31T00:38:04.626Z,97831.72
2022-12-31T00:40:32.483Z,97833.31
2022-12-31T00:43:01.939Z,97838.19
2022-12-31T00:45:30.538Z,97838.44
2022-12-31T00:47:58.721Z,97839.78
2022-12-31T00:50:26.708Z,97843.84
2022-12-31T00:52:55.982Z,97837.63
2022-12-31T00:55:23.839Z,97835.19
2022-12-31T00:57:51.961Z,97837.88
2022-12-31T01:00:20.448Z,97849.25
2022-12-31T01:02:48.420Z,97860.34
2022-12-31T01:05:19.009Z,97864.94
2022-12-31T01:07:47.060Z,97865.75
2022-12-31T01:10:37.687Z,97854.91
2022-12-31T01:13:06.105Z,97867.63
2022-12-31T01:15:35.694Z,97870.59
2022-12-31T01:18:05.240Z,97865.47
2022-12-31T01:20:37.682Z,97866.25
2022-12-31T01:23:06.155Z,97879.81
2022-12-31T01:25:37.984Z,97875.75
2022-12-31T01:28:08.262Z,97885.47
2022-12-31T01:30:41.178Z,97891.97
2022-12-31T01:33:10.753Z,97903.31
2022-12-31T01:35:38.652Z,97908.19
2022-12-31T01:38:06.433Z,97901.69
2022-12-31T01:40:39.730Z,97914.41
2022-12-31T01:43:14.545Z,97901.41
2022-12-31T01:45:44.274Z,97894.66
2022-12-31T01:48:14.820Z,97915.19
2022-12-31T01:50:44.674Z,97912.25
2022-12-31T01:53:13.450Z,97903.84
2022-12-31T01:55:49.035Z,97898.44
2022-12-31T01:58:21.391Z,97898.44
2022-12-31T02:00:50.558Z,97908.47
2022-12-31T02:03:18.703Z,97916.56
2022-12-31T02:05:52.703Z,97919.28
2022-12-31T02:08:21.897Z,97914.16
2022-12-31T02:10:51.073Z,97921.72
2022-12-31T02:13:19.239Z,97909.81
2022-12-31T02:15:55.797Z,97917.94
2022-12-31T02:18:32.813Z,97920.66
2022-12-31T02:21:30.600Z,97925.25
2022-12-31T02:24:43.197Z,97919.56
2022-12-31T02:27:20.715Z,97927.16
2022-12-31T02:30:08.220Z,97927.97
2022-12-31T02:32:55.456Z,97923.66
2022-12-31T02:35:30.397Z,97922.03
2022-12-31T02:38:04.089Z,97929.31
2022-12-31T02:40:36.175Z,97928.25
2022-12-31T02:43:04.643Z,97922.28
2022-12-31T02:45:38.918Z,97915.50
2022-12-31T02:48:23.060Z,97914.97
2022-12-31T02:51:02.287Z,97913.88
2022-12-31T02:53:54.325Z,97908.47
2022-12-31T02:56:28.923Z,97909.00
2022-12-31T02:59:22.145Z,97904.13
2022-12-31T03:02:20.256Z,97907.94
2022-12-31T03:04:52.537Z,97909.81
2022-12-31T03:07:24.614Z,97910.38
2022-12-31T03:09:53.027Z,97913.59
2022-12-31T03:12:41.366Z,97906.84
2022-12-31T03:15:20.453Z,97915.78
2022-12-31T03:17:56.708Z,97905.50
2022-12-31T03:20:44.925Z,97909.81
2022-12-31T03:23:15.371Z,97911.16
2022-12-31T03:25:43.388Z,97918.75
2022-12-31T03:28:13.260Z,97921.44
2022-12-31T03:30:43.347Z,97924.97
2022-12-31T03:33:13.126Z,97918.75
2022-12-31T03:35:43.123Z,97922.81
2022-12-31T03:38:11.524Z,97931.72
2022-12-31T03:40:41.541Z,97928.19
2022-12-31T03:43:09.453Z,97932.53
2022-12-31T03:45:38.505Z,97940.38
2022-12-31T03:48:08.926Z,97943.63
2022-12-31T03:50:38.447Z,97952.81
2022-12-31T03:53:06.586Z,97956.06
2022-12-31T03:55:34.588Z,97955.53
2022-12-31T03:58:03.062Z,97956.31
2022-12-31T04:00:31.170Z,97946.84
2022-12-31T04:02:59.156Z,97956.03
2022-12-31T04:05:27.376Z,97943.31
2022-12-31T04:07:56.932Z,97956.56
2022-12-31T04:10:24.832Z,97950.00
2022-12-31T04:12:53.130Z,97954.06
2022-12-31T04:15:22.506Z,97950.00
2022-12-31T04:17:50.770Z,97959.22
2022-12-31T04:20:19.109Z,97968.19
2022-12-31T04:22:46.923Z,97964.63
2022-12-31T04:25:16.420Z,97962.97
2022-12-31T04:27:44.664Z,97951.59
2022-12-31T04:30:14.168Z,97957.00
2022-12-31T04:32:42.498Z,97953.47
2022-12-31T04:35:12.315Z,97961.84
2022-12-31T04:37:40.428Z,97951.84
2022-12-31T04:40:09.984Z,97959.69
2022-12-31T04:42:39.531Z,97961.31
2022-12-31T04:45:08.718Z,97966.47
2022-12-31T04:47:36.958Z,97957.19
2022-12-31T04:50:05.789Z,97967.22
2022-12-31T04:52:40.321Z,97971.28
2022-12-31T04:55:11.184Z,97965.56
2022-12-31T04:57:40.589Z,97968.03
2022-12-31T05:00:09.897Z,97987.28
2022-12-31T05:02:38.764Z,97988.66
2022-12-31T05:05:07.703Z,97988.63
2022-12-31T05:07:35.759Z,97987.28
2022-12-31T05:10:04.083Z,97995.94
2022-12-31T05:12:32.336Z,97983.22
2022-12-31T05:15:01.756Z,97981.34
2022-12-31T05:17:30.557Z,97993.81
2022-12-31T05:19:58.523Z,97990.28
2022-12-31T05:22:32.790Z,98000.03
2022-12-31T05:25:04.146Z,97999.50
2022-12-31T05:27:32.757Z,98010.63
2022-12-31T05:30:02.126Z,98000.59
2022-12-31T05:32:30.252Z,98014.38
2022-12-31T05:34:59.830Z,98007.63
2022-12-31T05:37:28.051Z,98015.19
2022-12-31T05:39:56.280Z,98022.78
2022-12-31T05:42:25.257Z,98021.44
2022-12-31T05:44:53.115Z,98004.34
2022-12-31T05:47:22.733Z,98004.06
2022-12-31T05:49:51.855Z,98017.59
2022-12-31T05:52:20.975Z,98027.06
2022-12-31T05:54:49.333Z,98021.66
2022-12-31T05:57:19.651Z,98026.00
2022-12-31T05:59:47.777Z,98019.47
2022-12-31T06:02:16.000Z,98016.50
2022-12-31T06:04:47.412Z,98024.09
2022-12-31T06:07:15.706Z,98024.66
2022-12-31T06:09:44.982Z,98025.47
2022-12-31T06:12:14.060Z,98023.56
2022-12-31T06:14:45.723Z,98037.91
2022-12-31T06:17:15.074Z,98041.44
2022-12-31T06:19:45.858Z,98039.56
2022-12-31T06:22:13.970Z,98052.78
2022-12-31T06:24:42.837Z,98051.44
2022-12-31T06:27:12.256Z,98063.34
2022-12-31T06:29:40.691Z,98057.09
2022-12-31T06:32:09.622Z,98052.44
2022-12-31T06:34:37.941Z,98062.47
2022-12-31T06:37:07.314Z,98064.44
2022-12-31T06:39:36.750Z,98073.38
2022-12-31T06:42:04.829Z,98078.75
2022-12-31T06:44:32.832Z,98073.84
2022-12-31T06:47:01.118Z,98076.28
2022-12-31T06:49:29.016Z,98075.47
2022-12-31T06:51:57.606Z,98072.22
2022-12-31T06:54:27.258Z,98067.88
2022-12-31T06:56:55.864Z,98077.09
2022-12-31T06:59:28.833Z,98076.00
2022-12-31T07:02:23.578Z,98064.91
2022-12-31T07:05:10.436Z,98055.41
2022-12-31T07:07:49.706Z,98061.88
2022-12-31T07:10:30.167Z,98064.91
2022-12-31T07:13:13.928Z,98059.16
2022-12-31T07:15:53.194Z,98060.53
2022-12-31T07:18:30.511Z,98056.69
2022-12-31T07:21:01.153Z,98065.66
2022-12-31T07:23:30.079Z,98071.59
2022-12-31T07:26:07.431Z,98079.72
2022-12-31T07:28:47.779Z,98079.75
2022-12-31T07:31:26.053Z,98081.59
2022-12-31T07:34:00.790Z,98080.22
2022-12-31T07:36:47.290Z,98082.09
2022-12-31T07:39:23.550Z,98078.84
2022-12-31T07:42:00.358Z,98081.31
2022-12-31T07:44:39.503Z,98089.19
2022-12-31T07:47:20.600Z,98091.34
2022-12-31T07:49:49.522Z,98094.56
2022-12-31T07:52:18.983Z,98099.69
2022-12-31T07:54:47.130Z,98105.91
2022-12-31T07:57:18.875Z,98089.06
2022-12-31T07:59:58.497Z,98087.44
2022-12-31T08:02:41.204Z,98099.88
2022-12-31T08:05:17.831Z,98095.53
2022-12-31T08:07:56.614Z,98102.28
2022-12-31T08:10:33.649Z,98102.88
2022-12-31T08:13:06.973Z,98100.91
2022-12-31T08:15:36.673Z,98107.19
2022-12-31T08:18:05.253Z,98112.03
2022-12-31T08:20:35.515Z,98118.28
2022-12-31T08:23:23.514Z,98109.03
2022-12-31T08:26:03.140Z,98120.97
2022-12-31T08:28:50.544Z,98115.25
2022-12-31T08:31:22.553Z,98113.59
2022-12-31T08:34:03.877Z,98122.53
2022-12-31T08:36:44.706Z,98120.91
2022-12-31T08:39:23.846Z,98115.94
2022-12-31T08:41:56.483Z,98116.19
2022-12-31T08:44:36.642Z,98117.16
2022-12-31T08:47:15.233Z,98134.88
2022-12-31T08:49:44.926Z,98128.88
2022-12-31T08:52:18.373Z,98127.78
2022-12-31T08:54:46.945Z,98144.06
2022-12-31T08:57:22.772Z,98148.13
2022-12-31T09:00:08.783Z,98144.56
2022-12-31T09:02:53.713Z,98148.66
2022-12-31T09:05:26.661Z,98165.25
2022-12-31T09:08:06.651Z,98166.63
2022-12-31T09:10:41.424Z,98161.94
2022-12-31T09:13:16.519Z,98168.97
2022-12-31T09:15:54.263Z,98158.94
2022-12-31T09:18:29.747Z,98157.56
2022-12-31T09:21:01.732Z,98172.22
2022-12-31T09:23:32.648Z,98176.88
2022-12-31T09:26:13.245Z,98164.56
2022-12-31T09:28:48.451Z,98166.97
2022-12-31T09:31:24.648Z,98174.44
2022-12-31T09:34:00.813Z,98166.53
2022-12-31T09:36:36.040Z,98173.78
2022-12-31T09:39:10.884Z,98165.59
2022-12-31T09:42:29.929Z,98177.50
2022-12-31T09:45:23.737Z,98167.44
2022-12-31T09:48:24.440Z,98153.22
2022-12-31T09:51:09.882Z,98178.25
2022-12-31T09:53:43.046Z,98178.78
2022-12-31T09:56:22.107Z,98173.25
2022-12-31T09:59:00.398Z,98184.38
2022-12-31T10:01:41.681Z,98166.44
2022-12-31T10:04:37.215Z,98169.84
2022-12-31T10:07:21.731Z,98162.94
2022-12-31T10:10:09.297Z,98173.13
2022-12-31T10:13:20.164Z,98167.63
2022-12-31T10:16:12.937Z,98163.41
2022-12-31T10:19:01.444Z,98169.19
2022-12-31T10:21:50.780Z,98171.56
2022-12-31T10:24:37.772Z,98170.91
2022-12-31T10:27:22.817Z,98173.69
2022-12-31T10:29:59.916Z,98175.38
2022-12-31T10:32:41.646Z,98157.88
2022-12-31T10:35:30.589Z,98164.56
2022-12-31T10:38:12.344Z,98166.13
2022-12-31T10:41:10.543Z,98173.94
2022-12-31T10:44:14.148Z,98180.56
2022-12-31T10:47:01.866Z,98169.50
2022-12-31T10:50:19.170Z,98159.84
2022-12-31T10:53:26.874Z,98151.78
2022-12-31T10:56:15.929Z,98156.06
2022-12-31T10:59:17.228Z,98153.84
2022-12-31T11:01:50.863Z,98154.31
2022-12-31T11:04:55.295Z,98149.41
2022-12-31T11:07:47.923Z,98151.81
2022-12-31T11:10:53.741Z,98150.03
2022-12-31T11:13:57.128Z,98150.84
2022-12-31T11:19:31.582Z,98141.47
2022-12-31T11:22:20.513Z,98136.50
2022-12-31T11:25:09.297Z,98130.56
2022-12-31T11:27:51.212Z,98136.22
2022-12-31T11:30:24.290Z,98134.69
2022-12-31T11:33:17.046Z,98137.41
2022-12-31T11:36:06.588Z,98135.72
2022-12-31T11:38:38.978Z,98135.72
2022-12-31T11:41:10.876Z,98127.72
2022-12-31T11:43:45.091Z,98126.81
2022-12-31T11:46:35.608Z,98126.94
2022-12-31T11:49:18.292Z,98122.91
2022-12-31T11:52:07.754Z,98121.19
2022-12-31T11:54:54.541Z,98121.91
2022-12-31T11:57:27.928Z,98129.28
2022-12-31T12:00:06.076Z,98122.50
2022-12-31T12:02:37.680Z,98129.06
2022-12-31T12:05:10.962Z,98119.78
2022-12-31T12:07:40.521Z,98115.94
2022-12-31T12:10:18.905Z,98110.19
2022-12-31T12:12:47.223Z,98117.56
2022-12-31T12:15:20.167Z,98111.50
2022-12-31T12:17:53.352Z,98108.97
2022-12-31T12:20:28.209Z,98102.28
2022-12-31T12:23:00.160Z,98103.19
2022-12-31T12:25:39.539Z,98103.81
2022-12-31T12:28:23.107Z,98104.00
2022-12-31T12:30:59.656Z,98099.06
2022-12-31T12:33:30.134Z,98090.16
2022-12-31T12:36:08.956Z,98098.75
2022-12-31T12:38:39.373Z,98084.09
2022-12-31T12:41:13.380Z,98088.94
2022-12-31T12:43:41.554Z,98086.13
2022-12-31T12:46:21.070Z,98091.88
2022-12-31T12:48:55.627Z,98100.06
2022-12-31T12:51:46.843Z,98078.94
2022-12-31T12:54:30.547Z,98081.56
2022-12-31T12:57:05.853Z,98078.84
2022-12-31T12:59:57.017Z,98080.25
2022-12-31T13:02:57.693Z,98076.41
2022-12-31T13:05:39.751Z,98078.13
2022-12-31T13:08:21.864Z,98086.00
2022-12-31T13:11:01.729Z,98074.09
2022-12-31T13:13:41.711Z,98072.78
2022-12-31T13:16:18.064Z,98074.88
2022-12-31T13:18:56.056Z,98073.06
2022-12-31T13:21:35.023Z,98070.44
2022-12-31T13:24:11.658Z,98077.81
2022-12-31T13:26:48.690Z,98082.84
2022-12-31T13:29:20.898Z,98071.41
2022-12-31T13:31:51.353Z,98057.78
2022-12-31T13:34:24.096Z,98052.44
2022-12-31T13:36:54.508Z,98052.53
2022-12-31T13:39:26.572Z,98058.88
2022-12-31T13:42:00.892Z,98058.78
2022-12-31T13:44:32.238Z,98049.88
2022-12-31T13:47:08.246Z,98052.38
2022-12-31T13:49:43.314Z,98051.06
2022-12-31T13:52:26.098Z,98046.94
2022-12-31T13:54:57.835Z,98057.94
2022-12-31T13:57:38.081Z,98044.69
2022-12-31T14:00:13.952Z,98041.56
2022-12-31T14:02:49.305Z,98052.34
2022-12-31T14:05:24.040Z,98052.22
2022-12-31T14:07:56.488Z,98049.28
2022-12-31T14:10:34.638Z,98048.56
2022-12-31T14:13:20.968Z,98046.72
2022-12-31T14:15:59.385Z,98043.19
2022-12-31T14:18:34.729Z,98040.03
2022-12-31T14:21:12.667Z,98054.34
2022-12-31T14:23:49.583Z,98042.72
2022-12-31T14:26:23.900Z,98046.59
2022-12-31T14:29:02.858Z,98048.06
2022-12-31T14:31:45.943Z,98057.84
2022-12-31T14:34:20.392Z,98046.16
2022-12-31T14:36:58.658Z,98062.84
2022-12-31T14:39:40.949Z,98066.38
2022-12-31T14:42:19.729Z,98061.31
2022-12-31T14:45:03.448Z,98067.91
2022-12-31T14:47:45.629Z,98063.13
2022-12-31T14:50:17.843Z,98065.03
2022-12-31T14:52:51.591Z,98070.56
2022-12-31T14:55:29.915Z,98075.25
2022-12-31T14:58:27.138Z,98072.59
2022-12-31T15:00:56.093Z,98067.31
2022-12-31T15:03:26.882Z,98072.00
2022-12-31T15:06:00.680Z,98071.25
2022-12-31T15:08:40.802Z,98074.31
2022-12-31T15:11:24.297Z,98069.97
2022-12-31T15:14:09.764Z,98070.91
2022-12-31T15:16:52.301Z,98070.44
2022-12-31T15:20:01.787Z,98078.75
2022-12-31T15:22:41.449Z,98079.91
2022-12-31T15:25:25.510Z,98078.47
2022-12-31T15:27:54.406Z,98078.53
2022-12-31T15:30:35.431Z,98081.81
2022-12-31T15:33:08.008Z,98083.78
2022-12-31T15:35:47.503Z,98088.16
2022-12-31T15:38:34.616Z,98084.84
2022-12-31T15:41:13.740Z,98093.06
2022-12-31T15:43:48.359Z,98087.16
2022-12-31T15:46:19.688Z,98087.78
2022-12-31T15:48:56.567Z,98082.84
2022-12-31T15:51:30.675Z,98091.19
2022-12-31T15:54:01.293Z,98087.44
2022-12-31T15:56:36.107Z,98088.53
2022-12-31T15:59:07.688Z,98086.16
2022-12-31T16:01:37.459Z,98086.44
2022-12-31T16:04:15.434Z,98102.75
2022-12-31T16:06:48.905Z,98104.59
2022-12-31T16:09:22.880Z,98096.78
2022-12-31T16:11:51.904Z,98109.09
2022-12-31T16:14:24.511Z,98100.94
2022-12-31T16:16:54.980Z,98104.00
2022-12-31T16:19:34.253Z,98105.09
2022-12-31T16:22:07.785Z,98112.72
2022-12-31T16:24:48.871Z,98116.81
2022-12-31T16:27:26.926Z,98113.31
2022-12-31T16:30:01.569Z,98112.78
2022-12-31T16:32:36.695Z,98110.34
2022-12-31T16:35:23.729Z,98104.16
2022-12-31T16:38:02.350Z,98110.97
2022-12-31T16:40:31.201Z,98112.88
2022-12-31T16:42:59.002Z,98106.38
2022-12-31T16:45:33.860Z,98110.75
2022-12-31T16:48:16.582Z,98113.19
2022-12-31T16:50:48.542Z,98114.84
2022-12-31T16:53:20.739Z,98111.56
2022-12-31T16:55:55.927Z,98110.69
2022-12-31T16:58:29.216Z,98105.53
2022-12-31T17:01:05.266Z,98109.63
2022-12-31T17:03:33.554Z,98103.66
2022-12-31T17:06:15.060Z,98099.03
2022-12-31T17:08:45.239Z,98097.44
2022-12-31T17:11:23.564Z,98108.81
2022-12-31T17:13:56.957Z,98100.09
2022-12-31T17:16:25.953Z,98101.16
2022-12-31T17:18:53.997Z,98091.88
2022-12-31T17:21:27.220Z,98100.03
2022-12-31T17:23:57.529Z,98107.06
2022-12-31T17:26:28.057Z,98112.47
2022-12-31T17:28:58.685Z,98114.94
2022-12-31T17:31:35.653Z,98122.31
2022-12-31T17:34:21.940Z,98125.56
2022-12-31T17:37:01.538Z,98122.28
2022-12-31T17:39:43.497Z,98117.66
2022-12-31T17:42:13.131Z,98126.25
2022-12-31T17:44:44.222Z,98123.34
2022-12-31T17:47:15.241Z,98123.56
2022-12-31T17:49:46.488Z,98129.00
2022-12-31T17:52:17.508Z,98130.63
2022-12-31T17:54:45.330Z,98138.00
2022-12-31T17:57:26.119Z,98141.22
2022-12-31T17:59:54.506Z,98138.25
2022-12-31T18:02:22.414Z,98145.00
2022-12-31T18:04:50.954Z,98151.00
2022-12-31T18:07:20.093Z,98151.19
2022-12-31T18:09:47.854Z,98142.44
2022-12-31T18:12:17.021Z,98146.50
2022-12-31T18:14:46.566Z,98149.75
2022-12-31T18:17:17.391Z,98138.34
2022-12-31T18:20:04.226Z,98147.59
2022-12-31T18:22:35.434Z,98139.78
2022-12-31T18:25:04.236Z,98145.78
2022-12-31T18:27:33.979Z,98141.47
2022-12-31T18:30:04.977Z,98143.09
2022-12-31T18:32:35.382Z,98141.22
2022-12-31T18:35:03.524Z,98143.66
2022-12-31T18:37:33.152Z,98144.53
2022-12-31T18:40:02.308Z,98149.72
2022-12-31T18:42:30.977Z,98157.63
2022-12-31T18:44:58.773Z,98165.25
2022-12-31T18:47:26.514Z,98163.63
2022-12-31T18:49:54.328Z,98166.38
2022-12-31T18:52:25.033Z,98161.53
2022-12-31T18:54:52.867Z,98167.00
2022-12-31T18:57:22.484Z,98164.53
2022-12-31T18:59:50.362Z,98165.69
2022-12-31T19:02:20.782Z,98171.34
2022-12-31T19:04:49.655Z,98176.53
2022-12-31T19:07:17.453Z,98182.22
2022-12-31T19:09:46.319Z,98169.75
2022-12-31T19:12:16.377Z,98173.28
2022-12-31T19:14:45.653Z,98179.56
2022-12-31T19:17:13.499Z,98173.38
2022-12-31T19:19:41.743Z,98177.75
2022-12-31T19:22:16.032Z,98182.34
2022-12-31T19:24:44.432Z,98185.06
2022-12-31T19:27:17.055Z,98190.78
2022-12-31T19:29:46.252Z,98190.81
2022-12-31T19:32:14.038Z,98189.69
2022-12-31T19:34:41.786Z,98187.28
2022-12-31T19:37:13.101Z,98192.41
2022-12-31T19:39:40.860Z,98195.94
2022-12-31T19:42:15.908Z,98188.31
2022-12-31T19:44:43.653Z,98195.69
2022-12-31T19:47:14.060Z,98200.03
2022-12-31T19:49:42.288Z,98201.13
2022-12-31T19:52:10.090Z,98209.28
2022-12-31T19:54:38.409Z,98212.25
2022-12-31T19:57:06.639Z,98212.53
2022-12-31T19:59:34.398Z,98215.25
2022-12-31T20:02:02.987Z,98216.09
2022-12-31T20:04:32.656Z,98197.09
2022-12-31T20:07:00.459Z,98199.81
2022-12-31T20:09:28.291Z,98195.22
2022-12-31T20:11:56.454Z,98198.75
2022-12-31T20:14:24.303Z,98190.34
2022-12-31T20:16:52.694Z,98195.22
2022-12-31T20:19:20.869Z,98200.09
2022-12-31T20:21:50.001Z,98196.59
2022-12-31T20:24:18.020Z,98198.47
2022-12-31T20:26:46.078Z,98194.16
2022-12-31T20:29:13.872Z,98199.81
2022-12-31T20:31:41.665Z,98200.09
2022-12-31T20:34:10.638Z,98205.25
2022-12-31T20:36:39.020Z,98200.94
2022-12-31T20:39:08.538Z,98200.63
2022-12-31T20:41:36.405Z,98203.09
2022-12-31T20:44:04.533Z,98205.81
2022-12-31T20:46:32.449Z,98193.91
2022-12-31T20:49:02.529Z,98194.72
2022-12-31T20:51:34.059Z,98197.16
2022-12-31T20:54:04.865Z,98192.81
2022-12-31T20:56:36.362Z,98201.22
2022-12-31T20:59:05.992Z,98194.19
2022-12-31T21:01:55.502Z,98200.13
2022-12-31T21:04:22.533Z,98203.41
2022-12-31T21:06:52.334Z,98203.38
2022-12-31T21:09:20.138Z,98206.88
2022-12-31T21:12:06.973Z,98206.09
2022-12-31T21:14:36.566Z,98212.84
2022-12-31T21:17:08.141Z,98207.41
2022-12-31T21:19:35.930Z,98212.56
2022-12-31T21:22:03.743Z,98211.22
2022-12-31T21:24:31.966Z,98209.31
2022-12-31T21:27:01.101Z,98212.00
2022-12-31T21:29:34.031Z,98209.31
2022-12-31T21:32:02.723Z,98213.63
2022-12-31T21:34:30.555Z,98215.56
2022-12-31T21:36:59.075Z,98208.22
2022-12-31T21:39:26.911Z,98219.06
2022-12-31T21:41:54.742Z,98220.69
2022-12-31T21:44:25.421Z,98223.66
2022-12-31T21:47:35.338Z,98212.31
2022-12-31T21:50:05.642Z,98218.81
2022-12-31T21:52:35.487Z,98225.88
2022-12-31T21:55:22.594Z,98229.41
2022-12-31T22:00:58.484Z,98230.78
2022-12-31T22:03:28.203Z,98239.44
2022-12-31T22:05:59.670Z,98240.25
2022-12-31T22:08:28.870Z,98246.50
2022-12-31T22:10:56.808Z,98248.69
2022-12-31T22:13:25.255Z,98253.03
2022-12-31T22:16:04.218Z,98253.03
2022-12-31T22:18:34.422Z,98254.38
2022-12-31T22:21:04.076Z,98257.13
2022-12-31T22:23:33.065Z,98251.97
2022-12-31T22:26:01.336Z,98254.69
2022-12-31T22:28:38.799Z,98259.28
2022-12-31T22:31:09.244Z,98254.13
2022-12-31T22:33:37.184Z,98261.19
2022-12-31T22:36:06.998Z,98254.13
2022-12-31T22:38:35.677Z,98254.13
2022-12-31T22:41:06.601Z,98256.31
2022-12-31T22:43:34.951Z,98257.13
2022-12-31T22:46:12.097Z,98251.69
2022-12-31T22:48:40.322Z,98253.03
2022-12-31T22:51:09.092Z,98270.38
2022-12-31T22:53:38.581Z,98273.88
2022-12-31T22:56:07.079Z,98274.19
2022-12-31T22:58:35.189Z,98278.81
2022-12-31T23:01:07.091Z,98286.38
2022-12-31T23:03:36.439Z,98280.97
2022-12-31T23:06:04.230Z,98285.84
2022-12-31T23:08:32.028Z,98283.41
2022-12-31T23:11:05.713Z,98276.09
2022-12-31T23:13:56.434Z,98290.16
2022-12-31T23:16:42.128Z,98287.72
2022-12-31T23:19:29.638Z,98290.44
2022-12-31T23:22:15.555Z,98291.00
2022-12-31T23:24:44.019Z,98289.91
2022-12-31T23:27:12.844Z,98280.69
2022-12-31T23:29:46.602Z,98288.00
2022-12-31T23:32:15.715Z,98288.81
2022-12-31T23:34:45.739Z,98292.34
2022-12-31T23:37:13.781Z,98296.97
2022-12-31T23:39:42.260Z,98294.53
2022-12-31T23:42:10.725Z,98288.28
2022-12-31T23:44:38.492Z,98300.47
2022-12-31T23:47:06.935Z,98294.78
2022-12-31T23:49:34.777Z,98301.28
2022-12-31T23:52:04.091Z,98298.84
2022-12-31T23:54:31.877Z,98302.09
2022-12-31T23:56:59.644Z,98304.28
2022-12-31T23:59:27.435Z,98304.81
